sensor_id;sensor_type;location;lat;lon;timestamp;pressure;altitude;pressure_sealevel;temperature;humidity
41383;BME280;27971;53.902;9.118;2022-10-31T00:05:09;101924.0;;;20.5;36.09
41383;BME280;27971;53.902;9.118;2022-10-31T00:07:11;101926.0;;;20.42;35.94
41383;BME280;27971;53.902;9.118;2022-10-31T00:09:14;101925.0;;;20.55;35.57
41383;BME280;27971;53.902;9.118;2022-10-31T00:11:17;101926.0;;;21.02;35.1
41383;BME280;27971;53.902;9.118;2022-10-31T00:13:19;101928.0;;;21.6;35.37
41383;BME280;27971;53.902;9.118;2022-10-31T00:15:22;101928.0;;;21.83;35.36
41383;BME280;27971;53.902;9.118;2022-10-31T00:17:26;101930.0;;;21.81;35.5
41383;BME280;27971;53.902;9.118;2022-10-31T00:19:28;101930.0;;;22.0;35.44
41383;BME280;27971;53.902;9.118;2022-10-31T00:21:32;101928.0;;;21.66;35.67
41383;BME280;27971;53.902;9.118;2022-10-31T00:23:35;101928.0;;;21.69;35.76
41383;BME280;27971;53.902;9.118;2022-10-31T00:25:39;101927.0;;;21.62;35.91
41383;BME280;27971;53.902;9.118;2022-10-31T00:27:41;101927.0;;;21.98;35.52
41383;BME280;27971;53.902;9.118;2022-10-31T00:29:44;101927.0;;;21.82;35.64
41383;BME280;27971;53.902;9.118;2022-10-31T00:31:47;101923.0;;;21.9;35.5
41383;BME280;27971;53.902;9.118;2022-10-31T00:33:50;101926.0;;;21.91;35.54
41383;BME280;27971;53.902;9.118;2022-10-31T00:35:53;101924.0;;;21.95;35.56
41383;BME280;27971;53.902;9.118;2022-10-31T00:37:55;101926.0;;;21.56;35.9
41383;BME280;27971;53.902;9.118;2022-10-31T00:39:58;101931.0;;;21.84;35.65
41383;BME280;27971;53.902;9.118;2022-10-31T00:42:00;101939.0;;;21.85;35.6
41383;BME280;27971;53.902;9.118;2022-10-31T00:44:03;101949.0;;;21.89;35.44
41383;BME280;27971;53.902;9.118;2022-10-31T00:46:05;101955.0;;;21.61;35.83
41383;BME280;27971;53.902;9.118;2022-10-31T00:48:09;101954.0;;;21.49;36.03
41383;BME280;27971;53.902;9.118;2022-10-31T00:50:12;101954.0;;;21.64;35.84
41383;BME280;27971;53.902;9.118;2022-10-31T00:52:14;101954.0;;;21.68;35.75
41383;BME280;27971;53.902;9.118;2022-10-31T00:54:18;101958.0;;;21.55;35.87
41383;BME280;27971;53.902;9.118;2022-10-31T00:56:20;101960.0;;;21.56;35.95
41383;BME280;27971;53.902;9.118;2022-10-31T00:58:23;101956.0;;;21.7;35.69
41383;BME280;27971;53.902;9.118;2022-10-31T01:00:26;101957.0;;;21.72;35.71
41383;BME280;27971;53.902;9.118;2022-10-31T01:02:29;101960.0;;;21.65;35.72
41383;BME280;27971;53.902;9.118;2022-10-31T01:04:32;101965.0;;;21.64;35.73
41383;BME280;27971;53.902;9.118;2022-10-31T01:06:34;101971.0;;;21.69;35.73
41383;BME280;27971;53.902;9.118;2022-10-31T01:08:38;101975.0;;;21.68;35.71
41383;BME280;27971;53.902;9.118;2022-10-31T01:10:40;101976.0;;;21.56;35.8
41383;BME280;27971;53.902;9.118;2022-10-31T01:12:46;101981.0;;;21.6;35.78
41383;BME280;27971;53.902;9.118;2022-10-31T01:14:47;101985.0;;;21.5;35.89
41383;BME280;27971;53.902;9.118;2022-10-31T01:16:50;101989.0;;;22.2;35.23
41383;BME280;27971;53.902;9.118;2022-10-31T01:18:53;101989.0;;;22.47;34.9
41383;BME280;27971;53.902;9.118;2022-10-31T01:21:00;101991.0;;;22.51;34.94
41383;BME280;27971;53.902;9.118;2022-10-31T01:22:58;101991.0;;;22.06;35.43
41383;BME280;27971;53.902;9.118;2022-10-31T01:25:01;101991.0;;;21.3;36.27
41383;BME280;27971;53.902;9.118;2022-10-31T01:27:03;101988.0;;;21.36;36.27
41383;BME280;27971;53.902;9.118;2022-10-31T01:29:08;101988.0;;;22.17;35.38
41383;BME280;27971;53.902;9.118;2022-10-31T01:31:10;101986.0;;;22.29;35.2
41383;BME280;27971;53.902;9.118;2022-10-31T01:33:13;101986.0;;;22.31;35.2
41383;BME280;27971;53.902;9.118;2022-10-31T01:35:15;101986.0;;;22.26;35.26
41383;BME280;27971;53.902;9.118;2022-10-31T01:37:18;101985.0;;;22.3;35.21
41383;BME280;27971;53.902;9.118;2022-10-31T01:39:21;101987.0;;;22.27;35.22
41383;BME280;27971;53.902;9.118;2022-10-31T01:41:27;101989.0;;;22.23;35.25
41383;BME280;27971;53.902;9.118;2022-10-31T01:43:42;101988.0;;;22.36;35.18
41383;BME280;27971;53.902;9.118;2022-10-31T01:45:29;101991.0;;;22.38;35.24
41383;BME280;27971;53.902;9.118;2022-10-31T01:47:39;101994.0;;;22.37;35.11
41383;BME280;27971;53.902;9.118;2022-10-31T01:49:38;101998.0;;;22.44;35.02
41383;BME280;27971;53.902;9.118;2022-10-31T01:51:44;102002.0;;;22.61;34.87
41383;BME280;27971;53.902;9.118;2022-10-31T01:53:42;102004.0;;;22.52;34.91
41383;BME280;27971;53.902;9.118;2022-10-31T01:55:45;102004.0;;;22.55;34.81
41383;BME280;27971;53.902;9.118;2022-10-31T01:57:50;102001.0;;;22.49;34.79
41383;BME280;27971;53.902;9.118;2022-10-31T01:59:55;101999.0;;;22.65;34.64
41383;BME280;27971;53.902;9.118;2022-10-31T02:01:53;102001.0;;;22.73;34.55
41383;BME280;27971;53.902;9.118;2022-10-31T02:03:55;102004.0;;;22.71;34.48
41383;BME280;27971;53.902;9.118;2022-10-31T02:05:59;102009.0;;;22.68;34.5
41383;BME280;27971;53.902;9.118;2022-10-31T02:08:06;102015.0;;;22.59;34.61
41383;BME280;27971;53.902;9.118;2022-10-31T02:10:05;102018.0;;;22.2;35.07
41383;BME280;27971;53.902;9.118;2022-10-31T02:12:09;102019.0;;;22.38;34.84
41383;BME280;27971;53.902;9.118;2022-10-31T02:14:10;102019.0;;;22.58;34.57
41383;BME280;27971;53.902;9.118;2022-10-31T02:16:13;102018.0;;;22.43;34.65
41383;BME280;27971;53.902;9.118;2022-10-31T02:18:16;102021.0;;;22.31;34.76
41383;BME280;27971;53.902;9.118;2022-10-31T02:20:21;102023.0;;;22.48;34.59
41383;BME280;27971;53.902;9.118;2022-10-31T02:22:27;102026.0;;;22.36;34.82
41383;BME280;27971;53.902;9.118;2022-10-31T02:24:43;102028.0;;;22.48;34.76
41383;BME280;27971;53.902;9.118;2022-10-31T02:26:46;102030.0;;;22.1;35.22
41383;BME280;27971;53.902;9.118;2022-10-31T02:28:48;102031.0;;;22.26;35.17
41383;BME280;27971;53.902;9.118;2022-10-31T02:32:43;102023.0;;;22.07;35.41
41383;BME280;27971;53.902;9.118;2022-10-31T02:34:44;102022.0;;;21.9;35.58
41383;BME280;27971;53.902;9.118;2022-10-31T02:36:46;102024.0;;;21.82;35.62
41383;BME280;27971;53.902;9.118;2022-10-31T02:38:51;102027.0;;;21.88;35.47
41383;BME280;27971;53.902;9.118;2022-10-31T02:40:56;102030.0;;;22.02;35.42
41383;BME280;27971;53.902;9.118;2022-10-31T02:42:56;102030.0;;;21.81;35.57
41383;BME280;27971;53.902;9.118;2022-10-31T02:44:59;102030.0;;;21.95;35.48
41383;BME280;27971;53.902;9.118;2022-10-31T02:46:59;102030.0;;;22.06;35.26
41383;BME280;27971;53.902;9.118;2022-10-31T02:49:05;102033.0;;;21.73;35.58
41383;BME280;27971;53.902;9.118;2022-10-31T02:51:03;102035.0;;;21.92;35.49
41383;BME280;27971;53.902;9.118;2022-10-31T02:53:05;102036.0;;;21.75;35.55
41383;BME280;27971;53.902;9.118;2022-10-31T02:55:11;102039.0;;;22.04;35.29
41383;BME280;27971;53.902;9.118;2022-10-31T02:57:11;102042.0;;;21.82;35.34
41383;BME280;27971;53.902;9.118;2022-10-31T02:59:13;102042.0;;;21.98;35.3
41383;BME280;27971;53.902;9.118;2022-10-31T03:01:26;102045.0;;;21.8;35.42
41383;BME280;27971;53.902;9.118;2022-10-31T03:03:21;102048.0;;;22.11;35.27
41383;BME280;27971;53.902;9.118;2022-10-31T03:05:30;102049.0;;;21.71;35.59
41383;BME280;27971;53.902;9.118;2022-10-31T03:07:30;102049.0;;;21.96;35.37
41383;BME280;27971;53.902;9.118;2022-10-31T03:09:30;102050.0;;;21.85;35.48
41383;BME280;27971;53.902;9.118;2022-10-31T03:11:34;102053.0;;;21.87;35.44
41383;BME280;27971;53.902;9.118;2022-10-31T03:13:35;102059.0;;;22.02;35.31
41383;BME280;27971;53.902;9.118;2022-10-31T03:15:36;102062.0;;;21.98;35.31
41383;BME280;27971;53.902;9.118;2022-10-31T03:17:39;102065.0;;;21.92;35.28
41383;BME280;27971;53.902;9.118;2022-10-31T03:19:42;102066.0;;;21.91;35.35
41383;BME280;27971;53.902;9.118;2022-10-31T03:21:45;102067.0;;;21.91;35.32
41383;BME280;27971;53.902;9.118;2022-10-31T03:23:47;102067.0;;;21.94;35.28
41383;BME280;27971;53.902;9.118;2022-10-31T03:25:49;102066.0;;;21.88;35.34
41383;BME280;27971;53.902;9.118;2022-10-31T03:27:52;102067.0;;;21.73;35.44
41383;BME280;27971;53.902;9.118;2022-10-31T03:29:56;102073.0;;;21.52;35.72
41383;BME280;27971;53.902;9.118;2022-10-31T03:32:00;102076.0;;;21.74;35.44
41383;BME280;27971;53.902;9.118;2022-10-31T03:34:00;102078.0;;;21.72;35.54
41383;BME280;27971;53.902;9.118;2022-10-31T03:36:03;102076.0;;;21.88;35.3
41383;BME280;27971;53.902;9.118;2022-10-31T03:38:04;102080.0;;;21.91;35.28
41383;BME280;27971;53.902;9.118;2022-10-31T03:40:09;102084.0;;;21.83;35.35
41383;BME280;27971;53.902;9.118;2022-10-31T03:42:11;102088.0;;;22.03;35.09
41383;BME280;27971;53.902;9.118;2022-10-31T03:44:14;102093.0;;;21.98;35.15
41383;BME280;27971;53.902;9.118;2022-10-31T03:46:15;102096.0;;;22.04;35.06
41383;BME280;27971;53.902;9.118;2022-10-31T03:48:20;102097.0;;;22.0;35.09
41383;BME280;27971;53.902;9.118;2022-10-31T03:50:21;102096.0;;;22.03;35.04
41383;BME280;27971;53.902;9.118;2022-10-31T03:52:26;102099.0;;;22.07;35.05
41383;BME280;27971;53.902;9.118;2022-10-31T03:54:31;102099.0;;;22.06;35.03
41383;BME280;27971;53.902;9.118;2022-10-31T03:56:34;102095.0;;;22.19;35.0
41383;BME280;27971;53.902;9.118;2022-10-31T03:58:35;102093.0;;;21.96;35.17
41383;BME280;27971;53.902;9.118;2022-10-31T04:00:35;102094.0;;;21.65;35.39
41383;BME280;27971;53.902;9.118;2022-10-31T04:02:40;102095.0;;;21.49;35.63
41383;BME280;27971;53.902;9.118;2022-10-31T04:04:40;102097.0;;;21.6;35.55
41383;BME280;27971;53.902;9.118;2022-10-31T04:06:44;102098.0;;;21.66;35.37
41383;BME280;27971;53.902;9.118;2022-10-31T04:08:49;102098.0;;;21.72;35.36
41383;BME280;27971;53.902;9.118;2022-10-31T04:10:50;102098.0;;;21.74;35.3
41383;BME280;27971;53.902;9.118;2022-10-31T04:12:57;102097.0;;;21.72;35.39
41383;BME280;27971;53.902;9.118;2022-10-31T04:14:55;102100.0;;;21.56;35.56
41383;BME280;27971;53.902;9.118;2022-10-31T04:16:57;102104.0;;;21.45;35.66
41383;BME280;27971;53.902;9.118;2022-10-31T04:19:00;102104.0;;;21.7;35.34
41383;BME280;27971;53.902;9.118;2022-10-31T04:21:05;102105.0;;;21.79;35.21
41383;BME280;27971;53.902;9.118;2022-10-31T04:23:13;102105.0;;;21.44;35.56
41383;BME280;27971;53.902;9.118;2022-10-31T04:25:08;102103.0;;;21.62;35.5
41383;BME280;27971;53.902;9.118;2022-10-31T04:27:11;102104.0;;;21.4;35.61
41383;BME280;27971;53.902;9.118;2022-10-31T04:29:13;102104.0;;;21.33;35.68
41383;BME280;27971;53.902;9.118;2022-10-31T04:31:16;102102.0;;;21.46;35.57
41383;BME280;27971;53.902;9.118;2022-10-31T04:33:19;102105.0;;;21.36;35.67
41383;BME280;27971;53.902;9.118;2022-10-31T04:35:22;102104.0;;;21.47;35.58
41383;BME280;27971;53.902;9.118;2022-10-31T04:37:25;102105.0;;;21.47;35.54
41383;BME280;27971;53.902;9.118;2022-10-31T04:39:27;102108.0;;;21.68;35.32
41383;BME280;27971;53.902;9.118;2022-10-31T04:41:29;102112.0;;;21.44;35.56
41383;BME280;27971;53.902;9.118;2022-10-31T04:43:33;102113.0;;;21.46;35.54
41383;BME280;27971;53.902;9.118;2022-10-31T04:45:36;102115.0;;;21.54;35.5
41383;BME280;27971;53.902;9.118;2022-10-31T04:47:38;102113.0;;;21.33;35.72
41383;BME280;27971;53.902;9.118;2022-10-31T04:49:41;102111.0;;;21.6;35.49
41383;BME280;27971;53.902;9.118;2022-10-31T04:51:44;102112.0;;;21.42;35.66
41383;BME280;27971;53.902;9.118;2022-10-31T04:53:46;102112.0;;;21.56;35.47
41383;BME280;27971;53.902;9.118;2022-10-31T04:55:50;102111.0;;;21.74;35.23
41383;BME280;27971;53.902;9.118;2022-10-31T04:57:53;102111.0;;;21.74;35.25
41383;BME280;27971;53.902;9.118;2022-10-31T04:59:55;102113.0;;;21.71;35.3
41383;BME280;27971;53.902;9.118;2022-10-31T05:01:58;102111.0;;;21.63;35.42
41383;BME280;27971;53.902;9.118;2022-10-31T05:04:01;102109.0;;;21.63;35.41
41383;BME280;27971;53.902;9.118;2022-10-31T05:06:04;102108.0;;;21.81;35.22
41383;BME280;27971;53.902;9.118;2022-10-31T05:08:06;102106.0;;;21.8;35.13
41383;BME280;27971;53.902;9.118;2022-10-31T05:10:10;102106.0;;;21.71;35.26
41383;BME280;27971;53.902;9.118;2022-10-31T05:12:11;102106.0;;;21.62;35.39
41383;BME280;27971;53.902;9.118;2022-10-31T05:14:14;102106.0;;;21.67;35.33
41383;BME280;27971;53.902;9.118;2022-10-31T05:16:17;102108.0;;;21.62;35.32
41383;BME280;27971;53.902;9.118;2022-10-31T05:18:19;102112.0;;;21.46;35.51
41383;BME280;27971;53.902;9.118;2022-10-31T05:20:28;102113.0;;;21.5;35.43
41383;BME280;27971;53.902;9.118;2022-10-31T05:22:25;102113.0;;;21.72;35.19
41383;BME280;27971;53.902;9.118;2022-10-31T05:24:28;102113.0;;;21.58;35.07
41383;BME280;27971;53.902;9.118;2022-10-31T05:26:31;102114.0;;;21.74;34.85
41383;BME280;27971;53.902;9.118;2022-10-31T05:28:33;102114.0;;;21.83;34.64
41383;BME280;27971;53.902;9.118;2022-10-31T05:30:36;102113.0;;;21.73;34.66
41383;BME280;27971;53.902;9.118;2022-10-31T05:32:39;102113.0;;;21.99;34.29
41383;BME280;27971;53.902;9.118;2022-10-31T05:34:42;102113.0;;;21.94;34.31
41383;BME280;27971;53.902;9.118;2022-10-31T05:36:46;102110.0;;;22.18;33.99
41383;BME280;27971;53.902;9.118;2022-10-31T05:38:48;102110.0;;;22.07;34.15
41383;BME280;27971;53.902;9.118;2022-10-31T05:40:54;102107.0;;;21.83;34.31
41383;BME280;27971;53.902;9.118;2022-10-31T05:42:56;102105.0;;;21.91;34.22
41383;BME280;27971;53.902;9.118;2022-10-31T05:44:57;102106.0;;;21.72;34.35
41383;BME280;27971;53.902;9.118;2022-10-31T05:47:00;102109.0;;;21.77;33.98
41383;BME280;27971;53.902;9.118;2022-10-31T05:49:03;102110.0;;;22.22;33.71
41383;BME280;27971;53.902;9.118;2022-10-31T05:51:06;102109.0;;;22.29;33.58
41383;BME280;27971;53.902;9.118;2022-10-31T05:53:09;102111.0;;;21.84;33.99
41383;BME280;27971;53.902;9.118;2022-10-31T05:55:12;102112.0;;;21.66;34.14
41383;BME280;27971;53.902;9.118;2022-10-31T05:57:14;102113.0;;;22.13;33.74
41383;BME280;27971;53.902;9.118;2022-10-31T05:59:17;102114.0;;;22.0;33.77
41383;BME280;27971;53.902;9.118;2022-10-31T06:01:20;102115.0;;;22.0;33.76
41383;BME280;27971;53.902;9.118;2022-10-31T06:03:23;102116.0;;;22.08;33.58
41383;BME280;27971;53.902;9.118;2022-10-31T06:05:26;102119.0;;;22.01;33.68
41383;BME280;27971;53.902;9.118;2022-10-31T06:07:32;102119.0;;;22.41;33.33
41383;BME280;27971;53.902;9.118;2022-10-31T06:09:30;102119.0;;;22.65;33.0
41383;BME280;27971;53.902;9.118;2022-10-31T06:11:33;102118.0;;;22.54;32.89
41383;BME280;27971;53.902;9.118;2022-10-31T06:13:36;102120.0;;;21.44;33.79
41383;BME280;27971;53.902;9.118;2022-10-31T06:15:39;102122.0;;;22.27;32.99
41383;BME280;27971;53.902;9.118;2022-10-31T06:17:43;102125.0;;;22.47;32.77
41383;BME280;27971;53.902;9.118;2022-10-31T06:19:44;102128.0;;;22.07;32.98
41383;BME280;27971;53.902;9.118;2022-10-31T06:21:47;102127.0;;;22.66;32.26
41383;BME280;27971;53.902;9.118;2022-10-31T06:23:50;102129.0;;;22.52;32.32
41383;BME280;27971;53.902;9.118;2022-10-31T06:25:53;102130.0;;;22.35;32.27
41383;BME280;27971;53.902;9.118;2022-10-31T06:27:56;102128.0;;;23.02;31.56
41383;BME280;27971;53.902;9.118;2022-10-31T06:29:59;102128.0;;;22.79;31.74
41383;BME280;27971;53.902;9.118;2022-10-31T06:32:01;102128.0;;;22.89;31.67
41383;BME280;27971;53.902;9.118;2022-10-31T06:34:04;102129.0;;;23.68;30.95
41383;BME280;27971;53.902;9.118;2022-10-31T06:36:08;102132.0;;;24.06;30.57
41383;BME280;27971;53.902;9.118;2022-10-31T06:38:11;102136.0;;;24.07;30.49
41383;BME280;27971;53.902;9.118;2022-10-31T06:40:12;102138.0;;;24.07;30.4
41383;BME280;27971;53.902;9.118;2022-10-31T06:42:15;102141.0;;;24.04;30.35
41383;BME280;27971;53.902;9.118;2022-10-31T06:44:18;102143.0;;;23.88;30.46
41383;BME280;27971;53.902;9.118;2022-10-31T06:46:21;102147.0;;;23.29;30.97
41383;BME280;27971;53.902;9.118;2022-10-31T06:48:24;102151.0;;;23.82;30.49
41383;BME280;27971;53.902;9.118;2022-10-31T06:50:27;102157.0;;;24.51;29.8
41383;BME280;27971;53.902;9.118;2022-10-31T06:52:29;102161.0;;;24.65;29.56
41383;BME280;27971;53.902;9.118;2022-10-31T06:54:32;102166.0;;;24.33;29.76
41383;BME280;27971;53.902;9.118;2022-10-31T06:56:35;102169.0;;;24.6;29.54
41383;BME280;27971;53.902;9.118;2022-10-31T06:58:39;102171.0;;;23.45;30.59
41383;BME280;27971;53.902;9.118;2022-10-31T07:00:42;102172.0;;;23.64;30.47
41383;BME280;27971;53.902;9.118;2022-10-31T07:02:53;102173.0;;;23.87;30.35
41383;BME280;27971;53.902;9.118;2022-10-31T07:04:48;102176.0;;;23.29;30.91
41383;BME280;27971;53.902;9.118;2022-10-31T07:06:51;102178.0;;;23.39;30.83
41383;BME280;27971;53.902;9.118;2022-10-31T07:08:53;102181.0;;;23.79;30.53
41383;BME280;27971;53.902;9.118;2022-10-31T07:10:57;102182.0;;;23.45;30.95
41383;BME280;27971;53.902;9.118;2022-10-31T07:13:00;102184.0;;;24.57;30.03
41383;BME280;27971;53.902;9.118;2022-10-31T07:15:01;102188.0;;;24.73;29.78
41383;BME280;27971;53.902;9.118;2022-10-31T07:17:04;102192.0;;;24.68;29.79
41383;BME280;27971;53.902;9.118;2022-10-31T07:19:07;102195.0;;;23.61;30.78
41383;BME280;27971;53.902;9.118;2022-10-31T07:21:10;102196.0;;;24.01;30.6
41383;BME280;27971;53.902;9.118;2022-10-31T07:23:13;102196.0;;;24.13;30.56
41383;BME280;27971;53.902;9.118;2022-10-31T07:25:16;102196.0;;;24.09;30.6
41383;BME280;27971;53.902;9.118;2022-10-31T07:27:19;102198.0;;;24.21;30.54
41383;BME280;27971;53.902;9.118;2022-10-31T07:29:22;102201.0;;;24.04;30.62
41383;BME280;27971;53.902;9.118;2022-10-31T07:31:25;102202.0;;;24.25;30.54
41383;BME280;27971;53.902;9.118;2022-10-31T07:33:28;102204.0;;;23.58;31.09
41383;BME280;27971;53.902;9.118;2022-10-31T07:35:31;102208.0;;;24.16;30.63
41383;BME280;27971;53.902;9.118;2022-10-31T07:37:33;102210.0;;;23.77;30.97
41383;BME280;27971;53.902;9.118;2022-10-31T07:39:36;102207.0;;;24.04;30.76
41383;BME280;27971;53.902;9.118;2022-10-31T07:41:38;102204.0;;;24.02;30.82
41383;BME280;27971;53.902;9.118;2022-10-31T07:43:41;102205.0;;;24.16;30.68
41383;BME280;27971;53.902;9.118;2022-10-31T07:45:49;102209.0;;;24.03;30.71
41383;BME280;27971;53.902;9.118;2022-10-31T07:47:49;102209.0;;;24.18;30.61
41383;BME280;27971;53.902;9.118;2022-10-31T07:49:51;102208.0;;;24.43;30.32
41383;BME280;27971;53.902;9.118;2022-10-31T07:51:55;102207.0;;;24.47;30.37
41383;BME280;27971;53.902;9.118;2022-10-31T07:53:56;102207.0;;;24.4;30.49
41383;BME280;27971;53.902;9.118;2022-10-31T07:55:59;102208.0;;;24.44;30.57
41383;BME280;27971;53.902;9.118;2022-10-31T07:58:04;102206.0;;;24.37;30.64
41383;BME280;27971;53.902;9.118;2022-10-31T08:00:07;102203.0;;;24.49;30.6
41383;BME280;27971;53.902;9.118;2022-10-31T08:02:08;102202.0;;;24.34;30.67
41383;BME280;27971;53.902;9.118;2022-10-31T08:04:10;102201.0;;;23.65;31.21
41383;BME280;27971;53.902;9.118;2022-10-31T08:06:13;102204.0;;;23.42;31.35
41383;BME280;27971;53.902;9.118;2022-10-31T08:08:16;102206.0;;;23.16;31.57
41383;BME280;27971;53.902;9.118;2022-10-31T08:10:19;102207.0;;;24.06;30.72
41383;BME280;27971;53.902;9.118;2022-10-31T08:12:22;102209.0;;;24.77;30.05
41383;BME280;27971;53.902;9.118;2022-10-31T08:14:25;102211.0;;;24.04;30.72
41383;BME280;27971;53.902;9.118;2022-10-31T08:16:28;102212.0;;;23.94;30.8
41383;BME280;27971;53.902;9.118;2022-10-31T08:18:31;102212.0;;;24.22;30.61
41383;BME280;27971;53.902;9.118;2022-10-31T08:20:34;102213.0;;;24.72;30.27
41383;BME280;27971;53.902;9.118;2022-10-31T08:22:37;102213.0;;;24.41;30.57
41383;BME280;27971;53.902;9.118;2022-10-31T08:24:40;102213.0;;;24.5;30.46
41383;BME280;27971;53.902;9.118;2022-10-31T08:26:43;102213.0;;;24.4;30.67
41383;BME280;27971;53.902;9.118;2022-10-31T08:28:46;102213.0;;;25.08;30.01
41383;BME280;27971;53.902;9.118;2022-10-31T08:30:49;102211.0;;;24.49;30.55
41383;BME280;27971;53.902;9.118;2022-10-31T08:33:00;102210.0;;;24.17;30.81
41383;BME280;27971;53.902;9.118;2022-10-31T08:34:55;102211.0;;;24.1;30.96
41383;BME280;27971;53.902;9.118;2022-10-31T08:36:57;102208.0;;;24.41;30.68
41383;BME280;27971;53.902;9.118;2022-10-31T08:39:01;102205.0;;;24.4;30.59
41383;BME280;27971;53.902;9.118;2022-10-31T08:41:03;102204.0;;;23.87;31.21
41383;BME280;27971;53.902;9.118;2022-10-31T08:43:08;102202.0;;;24.39;30.74
41383;BME280;27971;53.902;9.118;2022-10-31T08:45:08;102202.0;;;23.81;31.22
41383;BME280;27971;53.902;9.118;2022-10-31T08:47:11;102202.0;;;24.04;30.98
41383;BME280;27971;53.902;9.118;2022-10-31T08:49:13;102200.0;;;24.36;30.66
41383;BME280;27971;53.902;9.118;2022-10-31T08:51:16;102199.0;;;24.47;30.57
41383;BME280;27971;53.902;9.118;2022-10-31T08:53:19;102201.0;;;24.29;30.82
41383;BME280;27971;53.902;9.118;2022-10-31T08:55:22;102204.0;;;24.53;30.58
41383;BME280;27971;53.902;9.118;2022-10-31T08:57:25;102208.0;;;24.66;30.46
41383;BME280;27971;53.902;9.118;2022-10-31T08:59:28;102206.0;;;24.31;30.73
41383;BME280;27971;53.902;9.118;2022-10-31T09:01:31;102205.0;;;24.13;30.84
41383;BME280;27971;53.902;9.118;2022-10-31T09:03:34;102209.0;;;24.96;30.0
41383;BME280;27971;53.902;9.118;2022-10-31T09:05:37;102210.0;;;24.43;30.51
41383;BME280;27971;53.902;9.118;2022-10-31T09:07:40;102211.0;;;24.38;30.6
41383;BME280;27971;53.902;9.118;2022-10-31T09:09:43;102213.0;;;24.97;30.04
41383;BME280;27971;53.902;9.118;2022-10-31T09:11:46;102215.0;;;25.22;29.8
41383;BME280;27971;53.902;9.118;2022-10-31T09:13:48;102213.0;;;25.42;29.69
41383;BME280;27971;53.902;9.118;2022-10-31T09:15:51;102214.0;;;25.48;29.72
41383;BME280;27971;53.902;9.118;2022-10-31T09:17:54;102216.0;;;25.24;29.88
41383;BME280;27971;53.902;9.118;2022-10-31T09:19:57;102218.0;;;24.81;30.32
41383;BME280;27971;53.902;9.118;2022-10-31T09:22:00;102220.0;;;25.09;30.21
41383;BME280;27971;53.902;9.118;2022-10-31T09:24:03;102222.0;;;24.98;30.38
41383;BME280;27971;53.902;9.118;2022-10-31T09:26:06;102224.0;;;24.31;31.08
41383;BME280;27971;53.902;9.118;2022-10-31T09:28:11;102225.0;;;24.65;30.91
41383;BME280;27971;53.902;9.118;2022-10-31T09:30:12;102223.0;;;24.56;31.16
41383;BME280;27971;53.902;9.118;2022-10-31T09:32:15;102223.0;;;24.4;31.48
41383;BME280;27971;53.902;9.118;2022-10-31T09:34:18;102226.0;;;24.57;31.33
41383;BME280;27971;53.902;9.118;2022-10-31T09:36:20;102224.0;;;24.33;31.63
41383;BME280;27971;53.902;9.118;2022-10-31T09:38:23;102224.0;;;24.48;31.54
41383;BME280;27971;53.902;9.118;2022-10-31T09:40:31;102226.0;;;24.22;31.84
41383;BME280;27971;53.902;9.118;2022-10-31T09:42:41;102226.0;;;24.27;31.82
41383;BME280;27971;53.902;9.118;2022-10-31T09:44:40;102225.0;;;24.2;31.98
41383;BME280;27971;53.902;9.118;2022-10-31T09:46:49;102227.0;;;24.13;32.12
41383;BME280;27971;53.902;9.118;2022-10-31T09:48:48;102225.0;;;24.05;32.34
41383;BME280;27971;53.902;9.118;2022-10-31T09:50:45;102223.0;;;23.92;32.4
41383;BME280;27971;53.902;9.118;2022-10-31T09:52:51;102220.0;;;23.83;32.4
41383;BME280;27971;53.902;9.118;2022-10-31T09:54:48;102219.0;;;24.24;32.05
41383;BME280;27971;53.902;9.118;2022-10-31T09:56:49;102221.0;;;24.41;31.69
41383;BME280;27971;53.902;9.118;2022-10-31T09:58:53;102224.0;;;24.55;31.4
41383;BME280;27971;53.902;9.118;2022-10-31T10:00:58;102226.0;;;24.49;31.28
41383;BME280;27971;53.902;9.118;2022-10-31T10:03:01;102229.0;;;24.45;31.42
41383;BME280;27971;53.902;9.118;2022-10-31T10:05:02;102225.0;;;23.81;31.86
41383;BME280;27971;53.902;9.118;2022-10-31T10:07:08;102224.0;;;23.43;32.02
41383;BME280;27971;53.902;9.118;2022-10-31T10:09:05;102223.0;;;23.47;31.98
41383;BME280;27971;53.902;9.118;2022-10-31T10:11:28;102224.0;;;23.62;31.71
41383;BME280;27971;53.902;9.118;2022-10-31T10:13:26;102226.0;;;23.94;31.44
41383;BME280;27971;53.902;9.118;2022-10-31T10:15:29;102227.0;;;23.89;31.44
41383;BME280;27971;53.902;9.118;2022-10-31T10:17:23;102227.0;;;23.63;31.44
41383;BME280;27971;53.902;9.118;2022-10-31T10:19:31;102228.0;;;23.03;31.97
41383;BME280;27971;53.902;9.118;2022-10-31T10:21:26;102228.0;;;23.43;31.69
41383;BME280;27971;53.902;9.118;2022-10-31T10:23:34;102224.0;;;23.7;31.37
41383;BME280;27971;53.902;9.118;2022-10-31T10:25:32;102221.0;;;23.32;31.69
41383;BME280;27971;53.902;9.118;2022-10-31T10:27:41;102217.0;;;23.58;31.41
41383;BME280;27971;53.902;9.118;2022-10-31T10:29:36;102214.0;;;23.73;31.34
41383;BME280;27971;53.902;9.118;2022-10-31T10:31:39;102214.0;;;24.05;31.02
41383;BME280;27971;53.902;9.118;2022-10-31T10:33:42;102215.0;;;24.05;31.05
41383;BME280;27971;53.902;9.118;2022-10-31T10:35:45;102214.0;;;24.03;31.05
41383;BME280;27971;53.902;9.118;2022-10-31T10:37:46;102215.0;;;24.55;30.61
41383;BME280;27971;53.902;9.118;2022-10-31T10:39:49;102214.0;;;24.74;30.51
41383;BME280;27971;53.902;9.118;2022-10-31T10:41:50;102214.0;;;24.03;31.2
41383;BME280;27971;53.902;9.118;2022-10-31T10:43:52;102214.0;;;23.44;31.81
41383;BME280;27971;53.902;9.118;2022-10-31T10:46:13;102214.0;;;23.94;31.39
41383;BME280;27971;53.902;9.118;2022-10-31T10:48:05;102214.0;;;24.01;31.64
41383;BME280;27971;53.902;9.118;2022-10-31T10:50:05;102214.0;;;24.47;31.11
41383;BME280;27971;53.902;9.118;2022-10-31T10:52:10;102212.0;;;24.7;30.93
41383;BME280;27971;53.902;9.118;2022-10-31T10:54:26;102208.0;;;24.43;31.21
41383;BME280;27971;53.902;9.118;2022-10-31T10:56:16;102206.0;;;24.01;31.67
41383;BME280;27971;53.902;9.118;2022-10-31T10:58:12;102206.0;;;23.42;31.96